Monza Express — ZDJO7 — position and weather

sailwx.info

Track history (hours):
 
Tides and Currents Weather Stations Pressure Air Temp Water Temp Dewpoint Dewpoint Depression Visibility Wind Speed Wind Dir Waves Ship Positions

Monza Express

Last reported at 2017-Dec-11 01:51 UTC. Time now 2017-Dec-14 06:28 UTC.
Position N 37°18' W 000°57'.

Length 168 m; draft 8.5 m.

Type: Cargo ship. MMSI: 236111618.

Date/timePositionNaut miles runAvg speedWind from/ knotsBaromVisibWave heightAir tempDewpointWater temp
2017-Dec-11 01:51N 37°18' W 000°57'515.2
2017-Dec-11 01:30N 37°22' W 000°52'714.8
2017-Dec-11 01:00N 37°26' W 000°46'815.3
2017-Dec-11 00:29N 37°32' W 000°38'715.4
2017-Dec-11 00:00N 37°37' W 000°32'815.5
2017-Dec-10 23:30N 37°44' W 000°27'815.5
2017-Dec-10 22:58N 37°51' W 000°22'715.4
2017-Dec-10 22:30N 37°57' W 000°16'1515.6
2017-Dec-10 21:31N 38°10' W 000°05'015.9
2017-Dec-10 21:30N 38°10' W 000°05'187 7.4
2017-Dec-09 20:08N 40°54' E 001°52'217.6
2017-Dec-09 20:00N 40°56' E 001°53'917.5
2017-Dec-09 19:31N 41°02' E 002°00'816.5
2017-Dec-09 19:01N 41°09' E 002°07'915.0
2017-Dec-09 18:25N 41°17' E 002°11'1 0.1
2017-Dec-09 04:01N 41°19' E 002°10'0 9.1
2017-Dec-09 04:00N 41°18' E 002°10'142 9.4
2017-Dec-08 12:54N 43°22' E 003°46'34 2.1
2017-Dec-07 20:15N 43°10' E 004°30'416.1
2017-Dec-07 20:01N 43°10' E 004°36'816.1
2017-Dec-07 19:30N 43°10' E 004°47'815.8
2017-Dec-07 19:00N 43°10' E 004°58'714.3
2017-Dec-07 18:30N 43°13' E 005°07'815.5
2017-Dec-07 18:00N 43°18' E 005°14'5 9.1
2017-Dec-07 17:30N 43°20' E 005°20'1 1.9
2017-Dec-07 17:00N 43°20' E 005°21'0 0.0
2017-Dec-07 16:30N 43°20' E 005°21'0 0.0
2017-Dec-07 16:00N 43°20' E 005°21'0 0.0
2017-Dec-07 15:30N 43°20' E 005°21'0 0.0
2017-Dec-07 15:00N 43°20' E 005°21'0 0.0
2017-Dec-07 14:27N 43°20' E 005°21'0 0.0
2017-Dec-07 14:00N 43°20' E 005°21'0 0.0
2017-Dec-07 13:30N 43°20' E 005°21'0 0.0
2017-Dec-07 12:51N 43°20' E 005°21'0 0.0
2017-Dec-07 12:18N 43°20' E 005°21'0 0.0
2017-Dec-07 11:51N 43°20' E 005°21'0 0.0
2017-Dec-07 11:21N 43°20' E 005°21'0 0.0
2017-Dec-07 10:51N 43°20' E 005°21'0 0.0
2017-Dec-07 10:21N 43°20' E 005°21'0 0.0
2017-Dec-07 09:54N 43°20' E 005°21'0 0.0
2017-Dec-07 09:06N 43°20' E 005°21'0 0.1
2017-Dec-07 08:55N 43°20' E 005°21'2 3.8
2017-Dec-07 08:30N 43°21' E 005°19'5 9.4
2017-Dec-07 08:00N 43°18' E 005°14'5 9.2
2017-Dec-07 07:30N 43°14' E 005°11'8316.6
2017-Dec-07 02:29N 42°58' E 007°03'817.8
2017-Dec-07 02:01N 42°60' E 007°15'1017.6
2017-Dec-07 01:27N 43°01' E 007°28'6016.0
2017-Dec-06 21:41N 43°12' E 008°50'0 1.0
2017-Dec-06 21:15N 43°12' E 008°49'1 2.2
2017-Dec-06 20:56N 43°11' E 008°50'  
2017-Dec-04 03:13N 36°46' E 013°42'416.4
2017-Dec-04 02:59N 36°45' E 013°47'816.3
2017-Dec-04 02:30N 36°44' E 013°56'816.4
2017-Dec-04 02:00N 36°42' E 014°06'816.7
2017-Dec-04 01:30N 36°40' E 014°16'817.0
2017-Dec-04 01:01N 36°38' E 014°27'917.0
2017-Dec-04 00:30N 36°36' E 014°37'37917.0
2017-Dec-03 02:16N 36°21' E 022°28'515.8
2017-Dec-03 01:57N 36°22' E 022°34'715.7
2017-Dec-03 01:30N 36°24' E 022°43'815.6
2017-Dec-03 00:59N 36°26' E 022°53'1615.7
2017-Dec-02 23:58N 36°25' E 023°12'1616.1
2017-Dec-02 23:00N 36°38' E 023°22'1016.4
2017-Dec-02 22:25N 36°46' E 023°29'716.5
2017-Dec-02 22:00N 36°51' E 023°34'816.5
2017-Dec-02 21:31N 36°58' E 023°40'816.4
2017-Dec-02 21:01N 37°06' E 023°44'816.3
2017-Dec-02 20:30N 37°12' E 023°51'917.2
2017-Dec-02 20:00N 37°19' E 023°56'917.1
2017-Dec-02 19:31N 37°27' E 024°02'816.8
2017-Dec-02 19:01N 37°34' E 024°08'916.9
2017-Dec-02 18:29N 37°41' E 024°13'816.8
2017-Dec-02 18:01N 37°47' E 024°20'816.8
2017-Dec-02 17:30N 37°52' E 024°29'815.7
2017-Dec-02 17:00N 37°58' E 024°36'1515.5
2017-Dec-02 16:01N 38°11' E 024°44'115.7
2017-Dec-02 15:59N 38°12' E 024°44'715.4
2017-Dec-02 15:30N 38°19' E 024°48'  
Track history (hours):
 
Tides and Currents Weather Stations Pressure Air Temp Water Temp Dewpoint Dewpoint Depression Visibility Wind Speed Wind Dir Waves Ship Positions

Monza Express

Last reported at 2017-Dec-11 01:51 UTC. Time now 2017-Dec-14 06:28 UTC.
Position N 37°18' W 000°57'.

Length 168 m; draft 8.5 m.

Type: Cargo ship. MMSI: 236111618.

Date/timePositionNaut miles runAvg speedWind from/ knotsBaromVisibWave heightAir tempDewpointWater temp
2017-Dec-11 01:51N 37°18' W 000°57'515.2
2017-Dec-11 01:30N 37°22' W 000°52'714.8
2017-Dec-11 01:00N 37°26' W 000°46'815.3
2017-Dec-11 00:29N 37°32' W 000°38'715.4
2017-Dec-11 00:00N 37°37' W 000°32'815.5
2017-Dec-10 23:30N 37°44' W 000°27'815.5
2017-Dec-10 22:58N 37°51' W 000°22'715.4
2017-Dec-10 22:30N 37°57' W 000°16'1515.6
2017-Dec-10 21:31N 38°10' W 000°05'015.9
2017-Dec-10 21:30N 38°10' W 000°05'187 7.4
2017-Dec-09 20:08N 40°54' E 001°52'217.6
2017-Dec-09 20:00N 40°56' E 001°53'917.5
2017-Dec-09 19:31N 41°02' E 002°00'816.5
2017-Dec-09 19:01N 41°09' E 002°07'915.0
2017-Dec-09 18:25N 41°17' E 002°11'1 0.1
2017-Dec-09 04:01N 41°19' E 002°10'0 9.1
2017-Dec-09 04:00N 41°18' E 002°10'142 9.4
2017-Dec-08 12:54N 43°22' E 003°46'34 2.1
2017-Dec-07 20:15N 43°10' E 004°30'416.1
2017-Dec-07 20:01N 43°10' E 004°36'816.1
2017-Dec-07 19:30N 43°10' E 004°47'815.8
2017-Dec-07 19:00N 43°10' E 004°58'714.3
2017-Dec-07 18:30N 43°13' E 005°07'815.5
2017-Dec-07 18:00N 43°18' E 005°14'5 9.1
2017-Dec-07 17:30N 43°20' E 005°20'1 1.9
2017-Dec-07 17:00N 43°20' E 005°21'0 0.0
2017-Dec-07 16:30N 43°20' E 005°21'0 0.0
2017-Dec-07 16:00N 43°20' E 005°21'0 0.0
2017-Dec-07 15:30N 43°20' E 005°21'0 0.0
2017-Dec-07 15:00N 43°20' E 005°21'0 0.0
2017-Dec-07 14:27N 43°20' E 005°21'0 0.0
2017-Dec-07 14:00N 43°20' E 005°21'0 0.0
2017-Dec-07 13:30N 43°20' E 005°21'0 0.0
2017-Dec-07 12:51N 43°20' E 005°21'0 0.0
2017-Dec-07 12:18N 43°20' E 005°21'0 0.0
2017-Dec-07 11:51N 43°20' E 005°21'0 0.0
2017-Dec-07 11:21N 43°20' E 005°21'0 0.0
2017-Dec-07 10:51N 43°20' E 005°21'0 0.0
2017-Dec-07 10:21N 43°20' E 005°21'0 0.0
2017-Dec-07 09:54N 43°20' E 005°21'0 0.0
2017-Dec-07 09:06N 43°20' E 005°21'0 0.1
2017-Dec-07 08:55N 43°20' E 005°21'2 3.8
2017-Dec-07 08:30N 43°21' E 005°19'5 9.4
2017-Dec-07 08:00N 43°18' E 005°14'5 9.2
2017-Dec-07 07:30N 43°14' E 005°11'8316.6
2017-Dec-07 02:29N 42°58' E 007°03'817.8
2017-Dec-07 02:01N 42°60' E 007°15'1017.6
2017-Dec-07 01:27N 43°01' E 007°28'6016.0
2017-Dec-06 21:41N 43°12' E 008°50'0 1.0
2017-Dec-06 21:15N 43°12' E 008°49'1 2.2
2017-Dec-06 20:56N 43°11' E 008°50'  
2017-Dec-04 03:13N 36°46' E 013°42'416.4
2017-Dec-04 02:59N 36°45' E 013°47'816.3
2017-Dec-04 02:30N 36°44' E 013°56'816.4
2017-Dec-04 02:00N 36°42' E 014°06'816.7
2017-Dec-04 01:30N 36°40' E 014°16'817.0
2017-Dec-04 01:01N 36°38' E 014°27'917.0
2017-Dec-04 00:30N 36°36' E 014°37'37917.0
2017-Dec-03 02:16N 36°21' E 022°28'515.8
2017-Dec-03 01:57N 36°22' E 022°34'715.7
2017-Dec-03 01:30N 36°24' E 022°43'815.6
2017-Dec-03 00:59N 36°26' E 022°53'1615.7
2017-Dec-02 23:58N 36°25' E 023°12'1616.1
2017-Dec-02 23:00N 36°38' E 023°22'1016.4
2017-Dec-02 22:25N 36°46' E 023°29'716.5
2017-Dec-02 22:00N 36°51' E 023°34'816.5
2017-Dec-02 21:31N 36°58' E 023°40'816.4
2017-Dec-02 21:01N 37°06' E 023°44'816.3
2017-Dec-02 20:30N 37°12' E 023°51'917.2
2017-Dec-02 20:00N 37°19' E 023°56'917.1
2017-Dec-02 19:31N 37°27' E 024°02'816.8
2017-Dec-02 19:01N 37°34' E 024°08'916.9
2017-Dec-02 18:29N 37°41' E 024°13'816.8
2017-Dec-02 18:01N 37°47' E 024°20'816.8
2017-Dec-02 17:30N 37°52' E 024°29'815.7
2017-Dec-02 17:00N 37°58' E 024°36'1515.5
2017-Dec-02 16:01N 38°11' E 024°44'115.7
2017-Dec-02 15:59N 38°12' E 024°44'715.4
2017-Dec-02 15:30N 38°19' E 024°48'  

Dump ship's entire track history